sensor_id;sensor_type;location;lat;lon;timestamp;temperature;humidity
13115;DHT22;6623;52.120;8.660;2022-09-27T08:32:55;11.50;82.70
13115;DHT22;6623;52.120;8.660;2022-09-27T08:35:21;11.70;82.90
13115;DHT22;6623;52.120;8.660;2022-09-27T08:37:57;11.60;82.90
13115;DHT22;6623;52.120;8.660;2022-09-27T08:40:30;11.60;82.70
13115;DHT22;6623;52.120;8.660;2022-09-27T08:43:08;11.60;82.70
13115;DHT22;6623;52.120;8.660;2022-09-27T08:45:54;11.60;82.70
13115;DHT22;6623;52.120;8.660;2022-09-27T08:48:30;11.60;82.70
13115;DHT22;6623;52.120;8.660;2022-09-27T08:50:56;11.70;82.80
13115;DHT22;6623;52.120;8.660;2022-09-27T08:55:54;11.70;83.30
13115;DHT22;6623;52.120;8.660;2022-09-27T08:58:38;11.90;83.40
13115;DHT22;6623;52.120;8.660;2022-09-27T09:01:21;11.90;83.10
13115;DHT22;6623;52.120;8.660;2022-09-27T09:03:51;12.00;82.80
13115;DHT22;6623;52.120;8.660;2022-09-27T09:06:27;12.00;82.10
13115;DHT22;6623;52.120;8.660;2022-09-27T09:11:46;12.00;81.50
13115;DHT22;6623;52.120;8.660;2022-09-27T09:14:36;12.00;81.10
13115;DHT22;6623;52.120;8.660;2022-09-27T09:24:46;12.20;81.20
13115;DHT22;6623;52.120;8.660;2022-09-27T09:35:08;12.30;80.80
13115;DHT22;6623;52.120;8.660;2022-09-27T09:37:37;12.30;80.80
13115;DHT22;6623;52.120;8.660;2022-09-27T09:42:34;12.30;81.00
13115;DHT22;6623;52.120;8.660;2022-09-27T09:50:41;12.10;81.10
13115;DHT22;6623;52.120;8.660;2022-09-27T09:53:24;12.00;81.20
13115;DHT22;6623;52.120;8.660;2022-09-27T09:55:51;12.10;81.70
13115;DHT22;6623;52.120;8.660;2022-09-27T09:58:21;12.10;82.30
13115;DHT22;6623;52.120;8.660;2022-09-27T10:00:50;12.10;82.50
13115;DHT22;6623;52.120;8.660;2022-09-27T10:03:16;12.20;82.30
13115;DHT22;6623;52.120;8.660;2022-09-27T10:05:42;12.40;82.20
13115;DHT22;6623;52.120;8.660;2022-09-27T10:08:11;12.20;81.60
13115;DHT22;6623;52.120;8.660;2022-09-27T10:10:37;12.30;81.10
13115;DHT22;6623;52.120;8.660;2022-09-27T10:13:04;12.10;80.80
13115;DHT22;6623;52.120;8.660;2022-09-27T10:15:29;12.20;80.70
13115;DHT22;6623;52.120;8.660;2022-09-27T10:17:56;12.10;80.40
13115;DHT22;6623;52.120;8.660;2022-09-27T10:20:25;12.20;80.30
13115;DHT22;6623;52.120;8.660;2022-09-27T10:22:52;11.90;80.20
13115;DHT22;6623;52.120;8.660;2022-09-27T10:25:19;12.00;80.30
13115;DHT22;6623;52.120;8.660;2022-09-27T10:27:49;11.90;80.30
13115;DHT22;6623;52.120;8.660;2022-09-27T10:30:27;11.90;80.10
13115;DHT22;6623;52.120;8.660;2022-09-27T10:32:57;11.90;79.90
13115;DHT22;6623;52.120;8.660;2022-09-27T10:40:34;11.80;79.60
13115;DHT22;6623;52.120;8.660;2022-09-27T10:43:00;11.80;79.70
13115;DHT22;6623;52.120;8.660;2022-09-27T10:45:27;11.80;79.80
13115;DHT22;6623;52.120;8.660;2022-09-27T10:47:53;11.80;79.60
13115;DHT22;6623;52.120;8.660;2022-09-27T10:50:25;11.70;79.60
13115;DHT22;6623;52.120;8.660;2022-09-27T10:52:59;11.70;79.50
13115;DHT22;6623;52.120;8.660;2022-09-27T10:55:25;11.60;79.30
13115;DHT22;6623;52.120;8.660;2022-09-27T10:57:55;11.70;79.70
13115;DHT22;6623;52.120;8.660;2022-09-27T11:00:40;11.70;79.90
13115;DHT22;6623;52.120;8.660;2022-09-27T11:09:26;11.90;81.20
13115;DHT22;6623;52.120;8.660;2022-09-27T11:12:10;12.00;81.40
13115;DHT22;6623;52.120;8.660;2022-09-27T11:34:50;12.40;81.40
13115;DHT22;6623;52.120;8.660;2022-09-27T11:43:08;12.50;81.30
13115;DHT22;6623;52.120;8.660;2022-09-27T11:48:50;12.70;81.50
13115;DHT22;6623;52.120;8.660;2022-09-27T12:08:39;13.40;79.00
13115;DHT22;6623;52.120;8.660;2022-09-27T12:11:23;13.50;78.70
13115;DHT22;6623;52.120;8.660;2022-09-27T12:16:40;13.60;76.50
13115;DHT22;6623;52.120;8.660;2022-09-27T12:19:23;13.60;76.40
13115;DHT22;6623;52.120;8.660;2022-09-27T12:21:54;13.70;76.20
13115;DHT22;6623;52.120;8.660;2022-09-27T12:24:24;13.60;75.90
13115;DHT22;6623;52.120;8.660;2022-09-27T12:26:57;13.70;75.80
13115;DHT22;6623;52.120;8.660;2022-09-27T12:29:42;13.60;75.30
13115;DHT22;6623;52.120;8.660;2022-09-27T12:35:18;13.60;75.00
13115;DHT22;6623;52.120;8.660;2022-09-27T12:40:39;13.50;74.70
13115;DHT22;6623;52.120;8.660;2022-09-27T12:43:11;13.70;74.70
13115;DHT22;6623;52.120;8.660;2022-09-27T12:45:48;13.70;74.00
13115;DHT22;6623;52.120;8.660;2022-09-27T13:12:17;13.70;73.50
13115;DHT22;6623;52.120;8.660;2022-09-27T13:23:00;13.80;72.10
13115;DHT22;6623;52.120;8.660;2022-09-27T13:31:09;13.70;71.70
13115;DHT22;6623;52.120;8.660;2022-09-27T13:36:15;13.70;71.90
13115;DHT22;6623;52.120;8.660;2022-09-27T13:46:48;13.60;71.50
13115;DHT22;6623;52.120;8.660;2022-09-27T13:49:24;13.50;71.30
13115;DHT22;6623;52.120;8.660;2022-09-27T13:51:54;13.50;71.30
13115;DHT22;6623;52.120;8.660;2022-09-27T13:56:58;13.50;71.60
13115;DHT22;6623;52.120;8.660;2022-09-27T14:05:55;13.40;72.60
13115;DHT22;6623;52.120;8.660;2022-09-27T14:11:11;13.40;73.20
13115;DHT22;6623;52.120;8.660;2022-09-27T14:13:53;13.40;73.30
13115;DHT22;6623;52.120;8.660;2022-09-27T14:16:19;13.50;73.60
13115;DHT22;6623;52.120;8.660;2022-09-27T14:18:49;13.50;73.90
13115;DHT22;6623;52.120;8.660;2022-09-27T14:23:45;13.50;74.00
13115;DHT22;6623;52.120;8.660;2022-09-27T14:26:24;13.60;74.00
13115;DHT22;6623;52.120;8.660;2022-09-27T14:28:50;13.60;73.70
13115;DHT22;6623;52.120;8.660;2022-09-27T14:31:16;13.50;73.60
13115;DHT22;6623;52.120;8.660;2022-09-27T14:33:42;13.50;73.50
13115;DHT22;6623;52.120;8.660;2022-09-27T14:36:26;13.50;73.10
13115;DHT22;6623;52.120;8.660;2022-09-27T14:39:13;13.40;72.30
13115;DHT22;6623;52.120;8.660;2022-09-27T14:41:40;13.40;72.10
13115;DHT22;6623;52.120;8.660;2022-09-27T14:44:11;13.10;72.20
13115;DHT22;6623;52.120;8.660;2022-09-27T14:46:38;12.90;72.10
13115;DHT22;6623;52.120;8.660;2022-09-27T14:49:22;12.80;72.40
13115;DHT22;6623;52.120;8.660;2022-09-27T14:51:52;12.70;72.80
13115;DHT22;6623;52.120;8.660;2022-09-27T14:54:25;12.60;73.40
13115;DHT22;6623;52.120;8.660;2022-09-27T14:56:57;12.60;73.90
13115;DHT22;6623;52.120;8.660;2022-09-27T14:59:25;12.60;74.20
13115;DHT22;6623;52.120;8.660;2022-09-27T15:01:55;12.60;74.60
13115;DHT22;6623;52.120;8.660;2022-09-27T15:04:21;12.50;74.70
13115;DHT22;6623;52.120;8.660;2022-09-27T15:06:48;12.50;75.10
13115;DHT22;6623;52.120;8.660;2022-09-27T15:09:19;12.50;75.40
13115;DHT22;6623;52.120;8.660;2022-09-27T15:11:54;12.10;75.50
13115;DHT22;6623;52.120;8.660;2022-09-27T15:14:20;12.20;76.00
13115;DHT22;6623;52.120;8.660;2022-09-27T15:16:50;12.30;76.20
13115;DHT22;6623;52.120;8.660;2022-09-27T15:19:29;12.20;76.40
13115;DHT22;6623;52.120;8.660;2022-09-27T15:21:55;12.20;76.50
13115;DHT22;6623;52.120;8.660;2022-09-27T15:27:13;12.30;77.30
13115;DHT22;6623;52.120;8.660;2022-09-27T15:29:55;12.30;77.60
13115;DHT22;6623;52.120;8.660;2022-09-27T15:32:22;12.30;77.60
13115;DHT22;6623;52.120;8.660;2022-09-27T15:34:48;12.30;77.60
13115;DHT22;6623;52.120;8.660;2022-09-27T15:37:33;12.50;77.70
13115;DHT22;6623;52.120;8.660;2022-09-27T15:42:55;12.20;77.40
13115;DHT22;6623;52.120;8.660;2022-09-27T15:45:34;12.20;77.40
13115;DHT22;6623;52.120;8.660;2022-09-27T15:48:13;12.10;77.40
13115;DHT22;6623;52.120;8.660;2022-09-27T15:50:39;12.10;77.40
13115;DHT22;6623;52.120;8.660;2022-09-27T15:53:06;12.10;77.60
13115;DHT22;6623;52.120;8.660;2022-09-27T15:55:32;12.00;77.80
13115;DHT22;6623;52.120;8.660;2022-09-27T15:58:10;11.90;77.90
13115;DHT22;6623;52.120;8.660;2022-09-27T16:00:49;11.90;78.00
13115;DHT22;6623;52.120;8.660;2022-09-27T16:03:17;11.90;78.30
13115;DHT22;6623;52.120;8.660;2022-09-27T16:05:43;11.90;78.70
13115;DHT22;6623;52.120;8.660;2022-09-27T16:08:17;11.70;78.80
13115;DHT22;6623;52.120;8.660;2022-09-27T16:10:49;11.90;79.00
13115;DHT22;6623;52.120;8.660;2022-09-27T16:13:16;11.80;79.20
13115;DHT22;6623;52.120;8.660;2022-09-27T16:15:47;11.90;79.50
13115;DHT22;6623;52.120;8.660;2022-09-27T16:18:13;11.90;79.40
13115;DHT22;6623;52.120;8.660;2022-09-27T16:20:45;11.90;79.40
13115;DHT22;6623;52.120;8.660;2022-09-27T16:23:10;11.90;79.20
13115;DHT22;6623;52.120;8.660;2022-09-27T16:25:36;13.50;80.10
13115;DHT22;6623;52.120;8.660;2022-09-27T16:28:05;11.80;79.20
13115;DHT22;6623;52.120;8.660;2022-09-27T16:30:33;11.80;79.10
13115;DHT22;6623;52.120;8.660;2022-09-27T16:32:59;11.60;79.00
13115;DHT22;6623;52.120;8.660;2022-09-27T16:35:25;11.70;79.20
13115;DHT22;6623;52.120;8.660;2022-09-27T16:37:50;11.60;79.20
13115;DHT22;6623;52.120;8.660;2022-09-27T16:40:16;11.50;79.30
13115;DHT22;6623;52.120;8.660;2022-09-27T16:42:42;11.50;79.50
13115;DHT22;6623;52.120;8.660;2022-09-27T16:45:08;11.60;79.60
13115;DHT22;6623;52.120;8.660;2022-09-27T16:47:37;11.50;79.70
13115;DHT22;6623;52.120;8.660;2022-09-27T16:50:03;11.50;79.70
13115;DHT22;6623;52.120;8.660;2022-09-27T16:52:47;11.50;79.70
13115;DHT22;6623;52.120;8.660;2022-09-27T16:55:14;12.10;80.10
13115;DHT22;6623;52.120;8.660;2022-09-27T16:57:42;11.50;79.80
13115;DHT22;6623;52.120;8.660;2022-09-27T17:00:08;11.50;79.90
13115;DHT22;6623;52.120;8.660;2022-09-27T17:02:33;11.50;79.90
13115;DHT22;6623;52.120;8.660;2022-09-27T17:05:00;11.40;79.90
13115;DHT22;6623;52.120;8.660;2022-09-27T17:07:31;11.60;80.10
13115;DHT22;6623;52.120;8.660;2022-09-27T17:09:56;11.90;80.50
13115;DHT22;6623;52.120;8.660;2022-09-27T17:12:29;11.60;80.30
13115;DHT22;6623;52.120;8.660;2022-09-27T17:14:57;11.40;80.40
13115;DHT22;6623;52.120;8.660;2022-09-27T17:17:26;11.40;80.50
13115;DHT22;6623;52.120;8.660;2022-09-27T17:19:52;11.40;80.50
13115;DHT22;6623;52.120;8.660;2022-09-27T17:22:17;12.30;81.30
13115;DHT22;6623;52.120;8.660;2022-09-27T17:24:45;11.40;80.80
13115;DHT22;6623;52.120;8.660;2022-09-27T17:27:11;11.40;80.90
13115;DHT22;6623;52.120;8.660;2022-09-27T17:29:39;11.30;80.80
13115;DHT22;6623;52.120;8.660;2022-09-27T17:32:05;11.30;81.00
13115;DHT22;6623;52.120;8.660;2022-09-27T17:34:33;11.40;81.00
13115;DHT22;6623;52.120;8.660;2022-09-27T17:36:58;11.30;80.90
13115;DHT22;6623;52.120;8.660;2022-09-27T17:39:25;11.50;81.10
13115;DHT22;6623;52.120;8.660;2022-09-27T17:41:51;11.60;81.20
13115;DHT22;6623;52.120;8.660;2022-09-27T17:44:17;10.80;80.70
13115;DHT22;6623;52.120;8.660;2022-09-27T17:46:43;11.30;81.00
13115;DHT22;6623;52.120;8.660;2022-09-27T17:49:09;11.20;81.00
13115;DHT22;6623;52.120;8.660;2022-09-27T17:51:53;11.20;81.00
13115;DHT22;6623;52.120;8.660;2022-09-27T17:54:20;11.20;81.20
13115;DHT22;6623;52.120;8.660;2022-09-27T17:56:49;11.10;81.20
13115;DHT22;6623;52.120;8.660;2022-09-27T17:59:15;11.10;81.30
13115;DHT22;6623;52.120;8.660;2022-09-27T18:01:48;11.20;81.50
13115;DHT22;6623;52.120;8.660;2022-09-27T18:04:14;11.10;81.60
13115;DHT22;6623;52.120;8.660;2022-09-27T18:06:44;11.10;81.80
13115;DHT22;6623;52.120;8.660;2022-09-27T18:09:13;11.40;82.00
13115;DHT22;6623;52.120;8.660;2022-09-27T18:11:39;12.00;82.50
13115;DHT22;6623;52.120;8.660;2022-09-27T18:14:05;11.10;82.00
13115;DHT22;6623;52.120;8.660;2022-09-27T18:16:39;11.10;81.90
13115;DHT22;6623;52.120;8.660;2022-09-27T18:19:08;11.10;81.90
13115;DHT22;6623;52.120;8.660;2022-09-27T18:21:34;11.10;81.70
13115;DHT22;6623;52.120;8.660;2022-09-27T18:24:00;11.10;81.80
13115;DHT22;6623;52.120;8.660;2022-09-27T18:26:33;11.10;81.60
13115;DHT22;6623;52.120;8.660;2022-09-27T18:29:03;11.00;81.30
13115;DHT22;6623;52.120;8.660;2022-09-27T18:31:32;11.00;81.20
13115;DHT22;6623;52.120;8.660;2022-09-27T18:33:58;11.00;81.10
13115;DHT22;6623;52.120;8.660;2022-09-27T18:36:26;10.90;81.00
13115;DHT22;6623;52.120;8.660;2022-09-27T18:38:53;10.90;80.90
13115;DHT22;6623;52.120;8.660;2022-09-27T18:41:20;10.80;80.90
13115;DHT22;6623;52.120;8.660;2022-09-27T18:43:46;10.80;81.00
13115;DHT22;6623;52.120;8.660;2022-09-27T18:46:13;10.80;81.00
13115;DHT22;6623;52.120;8.660;2022-09-27T18:48:57;10.70;81.00
13115;DHT22;6623;52.120;8.660;2022-09-27T18:51:24;10.70;81.00
13115;DHT22;6623;52.120;8.660;2022-09-27T18:53:55;10.70;81.10
13115;DHT22;6623;52.120;8.660;2022-09-27T18:56:21;10.60;81.00
13115;DHT22;6623;52.120;8.660;2022-09-27T18:58:47;10.60;81.00
13115;DHT22;6623;52.120;8.660;2022-09-27T19:01:13;10.50;81.10
13115;DHT22;6623;52.120;8.660;2022-09-27T19:03:39;10.50;81.00
13115;DHT22;6623;52.120;8.660;2022-09-27T19:06:06;10.50;81.00
13115;DHT22;6623;52.120;8.660;2022-09-27T19:08:32;10.40;81.00
13115;DHT22;6623;52.120;8.660;2022-09-27T19:11:04;10.40;81.10
13115;DHT22;6623;52.120;8.660;2022-09-27T19:13:33;10.40;81.10
13115;DHT22;6623;52.120;8.660;2022-09-27T19:16:07;10.40;81.10
13115;DHT22;6623;52.120;8.660;2022-09-27T19:18:36;10.30;81.20
13115;DHT22;6623;52.120;8.660;2022-09-27T19:21:12;10.30;81.20
13115;DHT22;6623;52.120;8.660;2022-09-27T19:23:38;10.40;81.30
13115;DHT22;6623;52.120;8.660;2022-09-27T19:26:05;10.30;81.30
13115;DHT22;6623;52.120;8.660;2022-09-27T19:28:32;10.30;81.40
13115;DHT22;6623;52.120;8.660;2022-09-27T19:31:07;10.30;81.40
13115;DHT22;6623;52.120;8.660;2022-09-27T19:33:34;10.30;81.40
13115;DHT22;6623;52.120;8.660;2022-09-27T19:36:03;10.30;81.40
13115;DHT22;6623;52.120;8.660;2022-09-27T19:38:29;10.30;81.40
13115;DHT22;6623;52.120;8.660;2022-09-27T19:40:57;10.20;81.50
13115;DHT22;6623;52.120;8.660;2022-09-27T19:43:23;10.30;81.60
13115;DHT22;6623;52.120;8.660;2022-09-27T19:45:49;10.20;81.70
13115;DHT22;6623;52.120;8.660;2022-09-27T19:48:14;10.30;81.70
13115;DHT22;6623;52.120;8.660;2022-09-27T19:50:40;10.30;81.60
13115;DHT22;6623;52.120;8.660;2022-09-27T19:53:08;10.30;81.60
13115;DHT22;6623;52.120;8.660;2022-09-27T19:55:34;10.20;81.60
13115;DHT22;6623;52.120;8.660;2022-09-27T19:58:02;10.20;81.60
13115;DHT22;6623;52.120;8.660;2022-09-27T20:00:30;10.20;81.60
13115;DHT22;6623;52.120;8.660;2022-09-27T20:02:57;10.20;81.50
13115;DHT22;6623;52.120;8.660;2022-09-27T20:05:25;10.20;81.50
13115;DHT22;6623;52.120;8.660;2022-09-27T20:07:51;10.10;81.50
13115;DHT22;6623;52.120;8.660;2022-09-27T20:10:19;9.90;81.50
13115;DHT22;6623;52.120;8.660;2022-09-27T20:12:45;10.10;81.70
13115;DHT22;6623;52.120;8.660;2022-09-27T20:15:12;10.10;81.80
13115;DHT22;6623;52.120;8.660;2022-09-27T20:17:43;10.30;82.00
13115;DHT22;6623;52.120;8.660;2022-09-27T20:20:08;10.20;82.10
13115;DHT22;6623;52.120;8.660;2022-09-27T20:22:34;10.10;82.80
13115;DHT22;6623;52.120;8.660;2022-09-27T20:24:59;10.20;82.20
13115;DHT22;6623;52.120;8.660;2022-09-27T20:27:25;10.20;82.20
13115;DHT22;6623;52.120;8.660;2022-09-27T20:29:50;11.00;82.70
13115;DHT22;6623;52.120;8.660;2022-09-27T20:32:16;10.20;82.10
13115;DHT22;6623;52.120;8.660;2022-09-27T20:34:42;13.90;84.40
13115;DHT22;6623;52.120;8.660;2022-09-27T20:37:07;10.20;82.40
13115;DHT22;6623;52.120;8.660;2022-09-27T20:39:35;10.20;82.40
13115;DHT22;6623;52.120;8.660;2022-09-27T20:42:11;10.20;82.30
13115;DHT22;6623;52.120;8.660;2022-09-27T20:44:37;10.20;82.30
13115;DHT22;6623;52.120;8.660;2022-09-27T20:47:03;10.10;82.40
13115;DHT22;6623;52.120;8.660;2022-09-27T20:49:31;10.10;82.40
13115;DHT22;6623;52.120;8.660;2022-09-27T20:52:07;10.20;82.20
13115;DHT22;6623;52.120;8.660;2022-09-27T20:54:32;10.10;82.10
13115;DHT22;6623;52.120;8.660;2022-09-27T20:56:59;10.20;82.20
13115;DHT22;6623;52.120;8.660;2022-09-27T20:59:24;10.10;82.00
13115;DHT22;6623;52.120;8.660;2022-09-27T21:01:50;10.10;81.90
13115;DHT22;6623;52.120;8.660;2022-09-27T21:04:16;10.10;81.80
13115;DHT22;6623;52.120;8.660;2022-09-27T21:06:42;9.90;81.60
13115;DHT22;6623;52.120;8.660;2022-09-27T21:09:11;9.90;81.60
13115;DHT22;6623;52.120;8.660;2022-09-27T21:11:46;10.00;81.70
13115;DHT22;6623;52.120;8.660;2022-09-27T21:14:15;9.90;81.60
13115;DHT22;6623;52.120;8.660;2022-09-27T21:16:40;9.80;81.70
13115;DHT22;6623;52.120;8.660;2022-09-27T21:19:12;9.80;81.80
13115;DHT22;6623;52.120;8.660;2022-09-27T21:21:41;9.80;81.80
13115;DHT22;6623;52.120;8.660;2022-09-27T21:24:06;9.80;82.10
13115;DHT22;6623;52.120;8.660;2022-09-27T21:26:35;9.70;82.20
13115;DHT22;6623;52.120;8.660;2022-09-27T21:29:04;9.40;82.00
13115;DHT22;6623;52.120;8.660;2022-09-27T21:31:30;9.70;82.20
13115;DHT22;6623;52.120;8.660;2022-09-27T21:33:57;9.80;82.20
13115;DHT22;6623;52.120;8.660;2022-09-27T21:36:29;9.70;82.20
13115;DHT22;6623;52.120;8.660;2022-09-27T21:39:00;9.80;82.20
13115;DHT22;6623;52.120;8.660;2022-09-27T21:41:38;9.70;82.20
13115;DHT22;6623;52.120;8.660;2022-09-27T21:44:04;9.80;82.30
13115;DHT22;6623;52.120;8.660;2022-09-27T21:46:30;10.20;82.60
13115;DHT22;6623;52.120;8.660;2022-09-27T21:48:59;9.60;82.30
13115;DHT22;6623;52.120;8.660;2022-09-27T21:51:38;9.70;82.40
13115;DHT22;6623;52.120;8.660;2022-09-27T21:54:05;9.60;82.40
13115;DHT22;6623;52.120;8.660;2022-09-27T21:56:38;10.40;83.00
13115;DHT22;6623;52.120;8.660;2022-09-27T21:59:10;9.60;82.70
13115;DHT22;6623;52.120;8.660;2022-09-27T22:01:36;9.60;82.90
13115;DHT22;6623;52.120;8.660;2022-09-27T22:04:03;9.60;83.20
13115;DHT22;6623;52.120;8.660;2022-09-27T22:06:30;9.70;83.30
13115;DHT22;6623;52.120;8.660;2022-09-27T22:08:56;9.70;83.40
13115;DHT22;6623;52.120;8.660;2022-09-27T22:11:24;9.70;83.50
13115;DHT22;6623;52.120;8.660;2022-09-27T22:13:50;9.70;83.60
13115;DHT22;6623;52.120;8.660;2022-09-27T22:16:20;9.80;83.70
13115;DHT22;6623;52.120;8.660;2022-09-27T22:18:46;9.90;83.70
13115;DHT22;6623;52.120;8.660;2022-09-27T22:21:16;9.80;83.10
13115;DHT22;6623;52.120;8.660;2022-09-27T22:23:45;9.90;83.60
13115;DHT22;6623;52.120;8.660;2022-09-27T22:28:39;9.80;83.60
13115;DHT22;6623;52.120;8.660;2022-09-27T22:31:14;9.90;83.60
13115;DHT22;6623;52.120;8.660;2022-09-27T22:33:46;9.90;83.50
13115;DHT22;6623;52.120;8.660;2022-09-27T22:36:12;10.30;83.80
13115;DHT22;6623;52.120;8.660;2022-09-27T22:38:41;9.90;83.60
13115;DHT22;6623;52.120;8.660;2022-09-27T22:41:06;9.90;83.60
13115;DHT22;6623;52.120;8.660;2022-09-27T22:43:32;9.90;83.60
13115;DHT22;6623;52.120;8.660;2022-09-27T22:45:58;10.00;83.80
13115;DHT22;6623;52.120;8.660;2022-09-27T22:48:29;10.10;83.80
13115;DHT22;6623;52.120;8.660;2022-09-27T22:51:01;10.00;83.70
13115;DHT22;6623;52.120;8.660;2022-09-27T22:53:41;10.00;83.70
13115;DHT22;6623;52.120;8.660;2022-09-27T22:56:09;10.00;83.60
13115;DHT22;6623;52.120;8.660;2022-09-27T22:58:35;10.00;83.70
13115;DHT22;6623;52.120;8.660;2022-09-27T23:01:12;10.70;84.20
13115;DHT22;6623;52.120;8.660;2022-09-27T23:03:39;10.00;83.90
13115;DHT22;6623;52.120;8.660;2022-09-27T23:06:04;10.00;83.90
13115;DHT22;6623;52.120;8.660;2022-09-27T23:08:32;10.00;84.00
13115;DHT22;6623;52.120;8.660;2022-09-27T23:11:21;10.00;84.00
13115;DHT22;6623;52.120;8.660;2022-09-27T23:13:49;10.00;84.10
13115;DHT22;6623;52.120;8.660;2022-09-27T23:16:16;10.00;84.10
13115;DHT22;6623;52.120;8.660;2022-09-27T23:18:42;10.00;84.10
13115;DHT22;6623;52.120;8.660;2022-09-27T23:21:09;10.00;84.00
13115;DHT22;6623;52.120;8.660;2022-09-27T23:23:36;10.00;84.00
13115;DHT22;6623;52.120;8.660;2022-09-27T23:26:03;10.00;84.10
13115;DHT22;6623;52.120;8.660;2022-09-27T23:28:30;10.00;84.20
13115;DHT22;6623;52.120;8.660;2022-09-27T23:30:56;10.10;84.30
13115;DHT22;6623;52.120;8.660;2022-09-27T23:33:27;10.00;84.40
13115;DHT22;6623;52.120;8.660;2022-09-27T23:35:53;10.10;84.50
13115;DHT22;6623;52.120;8.660;2022-09-27T23:38:18;10.10;84.60
13115;DHT22;6623;52.120;8.660;2022-09-27T23:40:50;10.80;85.00
13115;DHT22;6623;52.120;8.660;2022-09-27T23:43:15;9.30;84.10
13115;DHT22;6623;52.120;8.660;2022-09-27T23:45:41;10.10;84.70
13115;DHT22;6623;52.120;8.660;2022-09-27T23:48:13;10.10;84.70
13115;DHT22;6623;52.120;8.660;2022-09-27T23:50:41;10.00;84.50
13115;DHT22;6623;52.120;8.660;2022-09-27T23:53:13;10.00;84.60
13115;DHT22;6623;52.120;8.660;2022-09-27T23:55:42;10.00;84.50
13115;DHT22;6623;52.120;8.660;2022-09-27T23:58:10;10.00;84.60
